Time;durP1;ratioP1;P1;durP2;ratioP2;P2;SDS_P1;SDS_P2;PMS_P1;PMS_P2;Temp;Humidity;BMP_temperature;BMP_pressure;BME280_temperature;BME280_humidity;BME280_pressure;Samples;Min_cycle;Max_cycle;Signal;HPM_P1;HPM_P2
2021/01/01 06:02:46;;;;;;;29.20;14.17;;;2.30;97.30;;;;;;4982682;23;20504;-72
2021/01/01 06:05:13;;;;;;;34.20;14.30;;;2.30;97.30;;;;;;4914999;29;20883;-72
2021/01/01 06:07:40;;;;;;;28.90;15.07;;;2.30;97.30;;;;;;4915011;29;20437;-72
2021/01/01 06:10:11;;;;;;;31.80;14.57;;;2.20;97.30;;;;;;4915133;29;21064;-71
2021/01/01 06:12:38;;;;;;;31.23;14.33;;;2.20;97.30;;;;;;4897714;29;20496;-72
2021/01/01 06:15:09;;;;;;;33.10;16.83;;;2.20;97.30;;;;;;4896490;29;20416;-71
2021/01/01 06:17:51;;;;;;;25.70;14.40;;;2.10;97.30;;;;;;4895876;29;20488;-71
2021/01/01 06:20:21;;;;;;;34.47;14.30;;;2.10;97.30;;;;;;4897423;29;20421;-71
2021/01/01 06:23:02;;;;;;;31.63;15.43;;;2.10;97.30;;;;;;4896394;29;20422;-71
2021/01/01 06:25:29;;;;;;;36.20;15.20;;;2.10;97.30;;;;;;4896342;29;20421;-71
2021/01/01 06:27:55;;;;;;;38.30;16.10;;;2.10;97.30;;;;;;4897311;29;20433;-71
2021/01/01 06:30:25;;;;;;;39.63;16.27;;;2.20;97.30;;;;;;4896308;29;20544;-71
2021/01/01 06:32:52;;;;;;;39.20;16.27;;;2.20;97.30;;;;;;4896530;29;20409;-71
2021/01/01 06:35:20;;;;;;;35.80;15.70;;;2.20;97.30;;;;;;4896173;29;20801;-71
2021/01/01 06:37:55;;;;;;;34.80;15.00;;;2.20;97.30;;;;;;4896855;29;20428;-71
2021/01/01 06:40:21;;;;;;;33.60;16.40;;;2.20;97.30;;;;;;4899251;29;20421;-72
2021/01/01 06:42:54;;;;;;;34.87;15.33;;;2.20;97.30;;;;;;4899531;29;20489;-71
2021/01/01 06:45:44;;;;;;;35.70;14.90;;;2.30;97.30;;;;;;4899473;29;20193;-71
2021/01/01 06:48:09;;;;;;;35.27;15.80;;;2.30;97.30;;;;;;4900636;29;20413;-71
2021/01/01 06:50:37;;;;;;;31.60;15.30;;;2.40;97.30;;;;;;4899163;29;21058;-72
2021/01/01 06:53:08;;;;;;;37.13;16.07;;;2.40;97.30;;;;;;4899179;29;20574;-71
2021/01/01 06:55:37;;;;;;;28.53;15.03;;;2.30;97.30;;;;;;4900836;29;20801;-71
2021/01/01 06:58:04;;;;;;;30.83;15.30;;;2.30;97.30;;;;;;4899223;29;20441;-72
2021/01/01 07:00:45;;;;;;;34.80;16.53;;;2.30;97.30;;;;;;4898757;29;20434;-73
2021/01/01 07:03:26;;;;;;;32.40;14.60;;;2.30;97.30;;;;;;4898592;29;20465;-72
2021/01/01 07:05:55;;;;;;;38.07;16.23;;;2.40;97.30;;;;;;4898636;29;20413;-71
2021/01/01 07:08:42;;;;;;;33.53;16.43;;;2.40;97.30;;;;;;4898671;29;20410;-72
2021/01/01 07:11:11;;;;;;;37.80;15.63;;;2.40;97.30;;;;;;4898492;29;20947;-74
2021/01/01 07:13:43;;;;;;;36.70;15.60;;;2.50;97.30;;;;;;4898584;29;20593;-72
2021/01/01 07:16:09;;;;;;;42.50;16.60;;;2.50;97.30;;;;;;4896467;29;20805;-72
2021/01/01 07:18:35;;;;;;;39.70;15.90;;;2.60;97.30;;;;;;4898304;29;20413;-72
2021/01/01 07:21:10;;;;;;;36.97;16.43;;;2.60;97.30;;;;;;4899751;29;20429;-71
2021/01/01 07:23:37;;;;;;;37.30;15.90;;;2.60;97.30;;;;;;4897011;29;20947;-71
2021/01/01 07:26:04;;;;;;;34.93;15.57;;;2.60;97.30;;;;;;4899749;29;20417;-72
2021/01/01 07:28:30;;;;;;;38.37;16.20;;;2.60;97.30;;;;;;4898291;29;20425;-72
2021/01/01 07:30:56;;;;;;;35.67;15.90;;;2.60;97.30;;;;;;4897577;29;20479;-71
2021/01/01 07:33:24;;;;;;;33.60;15.83;;;2.60;97.30;;;;;;4898247;29;20418;-71
2021/01/01 07:35:55;;;;;;;37.37;16.60;;;2.70;97.30;;;;;;4894531;29;20185;-71
2021/01/01 07:38:22;;;;;;;34.03;15.23;;;2.70;97.30;;;;;;4898097;29;20420;-71
2021/01/01 07:40:48;;;;;;;34.53;15.63;;;2.70;97.30;;;;;;4899195;29;20436;-71
2021/01/01 07:43:14;;;;;;;36.23;15.97;;;2.70;97.30;;;;;;4899191;29;20418;-71
2021/01/01 07:45:40;;;;;;;38.53;17.23;;;2.70;97.30;;;;;;4898397;29;20477;-71
2021/01/01 07:48:06;;;;;;;33.17;16.43;;;2.70;97.30;;;;;;4898213;29;20181;-71
2021/01/01 07:50:33;;;;;;;38.07;17.50;;;2.70;97.30;;;;;;4899475;29;20456;-70
2021/01/01 07:53:06;;;;;;;31.70;17.40;;;2.70;97.30;;;;;;4899020;29;20489;-71
2021/01/01 07:55:34;;;;;;;32.83;15.10;;;2.70;97.30;;;;;;4898762;29;20767;-72
2021/01/01 07:58:04;;;;;;;36.80;15.77;;;2.80;97.30;;;;;;4899600;29;20417;-71
2021/01/01 08:00:31;;;;;;;43.83;18.37;;;2.80;97.30;;;;;;4897852;29;20426;-71
2021/01/01 08:02:57;;;;;;;38.70;16.83;;;2.80;97.30;;;;;;4897985;29;20418;-71
2021/01/01 08:05:23;;;;;;;40.53;17.80;;;2.90;97.30;;;;;;4897969;29;20848;-71
2021/01/01 08:07:49;;;;;;;35.60;17.20;;;3.00;97.30;;;;;;4898927;29;20177;-72
2021/01/01 08:10:15;;;;;;;37.87;15.73;;;3.00;97.30;;;;;;4898789;29;20457;-71
2021/01/01 08:12:53;;;;;;;38.90;17.20;;;3.00;97.30;;;;;;4897908;29;20422;-71
2021/01/01 08:15:32;;;;;;;36.43;17.13;;;3.00;97.30;;;;;;4897878;29;20188;-71
2021/01/01 08:18:23;;;;;;;38.53;17.07;;;3.00;97.30;;;;;;4880130;29;20931;-70
2021/01/01 08:20:55;;;;;;;42.60;17.50;;;3.00;97.30;;;;;;4880464;29;20486;-71
2021/01/01 08:23:21;;;;;;;39.43;17.00;;;2.90;97.30;;;;;;4880329;29;20902;-71
2021/01/01 08:25:48;;;;;;;42.43;19.83;;;2.90;97.30;;;;;;4878974;29;20418;-71
2021/01/01 08:28:27;;;;;;;44.57;17.07;;;2.90;97.30;;;;;;4878821;29;20422;-70
2021/01/01 08:31:04;;;;;;;44.30;19.40;;;3.00;97.30;;;;;;4879847;29;20489;-70
2021/01/01 08:33:32;;;;;;;47.77;18.90;;;3.00;97.30;;;;;;4880298;29;20410;-71
2021/01/01 08:36:05;;;;;;;45.43;18.73;;;3.00;97.30;;;;;;4878725;29;20419;-71
2021/01/01 08:38:31;;;;;;;57.03;25.80;;;3.10;97.30;;;;;;4879923;29;20445;-71
2021/01/01 08:40:58;;;;;;;54.10;21.50;;;3.10;97.30;;;;;;4878607;29;20444;-70
2021/01/01 08:43:25;;;;;;;47.03;19.80;;;3.10;97.30;;;;;;4878555;29;20435;-71
2021/01/01 08:45:52;;;;;;;70.63;25.57;;;3.10;97.30;;;;;;4879642;29;20776;-70
2021/01/01 08:48:19;;;;;;;74.43;26.90;;;3.10;97.30;;;;;;4878495;29;20422;-70
2021/01/01 08:50:48;;;;;;;97.83;30.00;;;3.10;97.30;;;;;;4878279;29;20478;-71
2021/01/01 08:53:14;;;;;;;56.07;21.67;;;3.00;97.30;;;;;;4879630;29;20426;-70
2021/01/01 08:55:40;;;;;;;35.60;17.20;;;3.00;97.30;;;;;;4878404;29;20430;-70
2021/01/01 08:58:14;;;;;;;40.07;17.43;;;3.00;97.30;;;;;;4879447;29;20415;-70
2021/01/01 09:00:43;;;;;;;40.27;18.00;;;3.00;97.30;;;;;;4877807;29;20443;-71
2021/01/01 09:03:09;;;;;;;40.67;18.93;;;3.00;97.30;;;;;;4878396;29;20423;-69
2021/01/01 09:05:36;;;;;;;41.20;17.77;;;3.00;97.30;;;;;;4878130;29;20948;-72
2021/01/01 09:08:09;;;;;;;40.53;19.90;;;3.00;97.30;;;;;;4879460;29;20414;-71
2021/01/01 09:10:36;;;;;;;46.87;18.80;;;3.00;97.30;;;;;;4878002;29;20497;-72
2021/01/01 09:13:17;;;;;;;46.37;19.97;;;3.00;97.30;;;;;;4879236;29;20426;-71
2021/01/01 09:15:45;;;;;;;41.23;17.27;;;3.00;97.30;;;;;;4881754;29;20413;-71
2021/01/01 09:18:11;;;;;;;45.40;19.60;;;3.00;97.30;;;;;;4896499;29;20432;-71
2021/01/01 09:20:46;;;;;;;41.00;18.40;;;3.10;97.30;;;;;;4896693;29;20572;-71
2021/01/01 09:23:12;;;;;;;47.90;19.23;;;3.10;97.30;;;;;;4896735;29;20429;-71
2021/01/01 09:25:40;;;;;;;50.50;19.37;;;3.10;97.30;;;;;;4896825;29;20428;-71
2021/01/01 09:28:10;;;;;;;41.50;18.00;;;3.10;97.30;;;;;;4896484;29;20422;-71
2021/01/01 09:30:36;;;;;;;46.60;19.13;;;3.10;97.30;;;;;;4897139;29;20525;-71
2021/01/01 09:33:03;;;;;;;39.83;17.50;;;3.10;97.30;;;;;;4896775;29;20421;-71
2021/01/01 09:35:30;;;;;;;43.50;18.20;;;3.10;97.30;;;;;;4897956;29;20422;-71
2021/01/01 09:38:04;;;;;;;37.20;16.43;;;3.10;97.30;;;;;;4897680;29;20416;-71
2021/01/01 09:40:34;;;;;;;43.37;17.93;;;3.10;97.30;;;;;;4896771;29;20473;-70
2021/01/01 09:43:04;;;;;;;46.90;18.37;;;3.10;97.30;;;;;;4896516;29;20845;-71
2021/01/01 09:45:30;;;;;;;37.93;17.77;;;3.20;97.30;;;;;;4896816;29;20421;-71
2021/01/01 09:47:56;;;;;;;42.20;18.80;;;3.10;97.30;;;;;;4896145;29;20486;-71
2021/01/01 09:50:22;;;;;;;41.80;18.73;;;3.10;97.30;;;;;;4897351;29;20454;-71
2021/01/01 09:52:47;;;;;;;43.40;18.97;;;3.10;97.30;;;;;;4896056;29;20309;-71
2021/01/01 09:55:13;;;;;;;45.03;20.63;;;3.10;97.30;;;;;;4897395;29;20180;-71
2021/01/01 09:57:40;;;;;;;53.67;21.07;;;3.20;97.30;;;;;;4895905;29;20555;-71
2021/01/01 10:00:09;;;;;;;45.00;19.33;;;3.20;97.30;;;;;;4896246;29;20410;-71
2021/01/01 10:02:34;;;;;;;36.53;17.83;;;3.20;97.30;;;;;;4895785;29;20460;-71
2021/01/01 10:05:00;;;;;;;41.70;19.27;;;3.20;97.30;;;;;;4897282;29;20513;-71
2021/01/01 10:07:28;;;;;;;46.00;18.87;;;3.30;97.30;;;;;;4893155;29;20185;-71
2021/01/01 10:09:53;;;;;;;42.83;18.23;;;3.30;97.30;;;;;;4895872;29;20265;-71
2021/01/01 10:12:19;;;;;;;49.30;21.50;;;3.40;97.30;;;;;;4896444;29;20547;-71
2021/01/01 10:14:45;;;;;;;51.50;19.63;;;3.40;97.30;;;;;;4900795;29;20185;-71
2021/01/01 10:17:11;;;;;;;38.97;17.80;;;3.40;97.30;;;;;;4899627;29;20177;-71
2021/01/01 10:19:41;;;;;;;45.37;19.73;;;3.50;97.30;;;;;;4899449;29;20440;-71
2021/01/01 10:22:08;;;;;;;37.73;18.00;;;3.50;97.30;;;;;;4899580;29;20204;-71
2021/01/01 10:24:35;;;;;;;46.43;18.70;;;3.50;97.30;;;;;;4899918;29;20429;-71
2021/01/01 10:27:01;;;;;;;41.90;19.00;;;3.50;97.30;;;;;;4898253;29;21026;-70
2021/01/01 10:29:26;;;;;;;41.63;20.50;;;3.60;97.30;;;;;;4900624;29;20413;-71
2021/01/01 10:31:52;;;;;;;44.23;19.43;;;3.60;97.30;;;;;;4900382;29;20564;-71
2021/01/01 10:34:19;;;;;;;42.27;20.90;;;3.60;97.30;;;;;;4900711;29;20217;-71
2021/01/01 10:36:45;;;;;;;43.33;19.63;;;3.60;97.30;;;;;;4899343;29;20421;-71
2021/01/01 10:39:11;;;;;;;49.70;22.10;;;3.60;97.30;;;;;;4900414;29;20977;-71
2021/01/01 10:41:37;;;;;;;41.33;19.60;;;3.70;97.30;;;;;;4898997;29;20208;-72
2021/01/01 10:44:04;;;;;;;43.10;20.43;;;3.70;97.30;;;;;;4900634;29;20216;-71
2021/01/01 10:46:29;;;;;;;47.47;20.93;;;3.60;97.30;;;;;;4899563;29;20550;-71
2021/01/01 10:48:55;;;;;;;48.57;19.93;;;3.70;97.30;;;;;;4900456;29;20512;-71
2021/01/01 10:51:24;;;;;;;47.47;19.10;;;3.60;97.30;;;;;;4900565;29;20232;-71
2021/01/01 10:53:50;;;;;;;47.90;19.40;;;3.60;97.30;;;;;;4899613;29;20333;-71
2021/01/01 10:56:28;;;;;;;51.53;21.40;;;3.60;97.30;;;;;;4900533;29;20927;-71
2021/01/01 10:58:54;;;;;;;49.37;22.90;;;3.60;97.30;;;;;;4899082;29;20417;-72
2021/01/01 11:01:22;;;;;;;53.77;22.90;;;3.50;97.30;;;;;;4900187;29;21026;-71
2021/01/01 11:03:49;;;;;;;50.37;21.63;;;3.40;97.30;;;;;;4899259;29;20944;-71
2021/01/01 11:06:16;;;;;;;50.93;22.30;;;3.50;97.30;;;;;;4899204;29;20795;-71
2021/01/01 11:08:43;;;;;;;50.13;22.30;;;3.50;97.30;;;;;;4898938;29;20421;-71
2021/01/01 11:11:11;;;;;;;51.63;22.60;;;3.50;97.30;;;;;;4898603;29;20662;-71
2021/01/01 11:13:40;;;;;;;55.47;24.77;;;3.50;97.30;;;;;;4898589;29;20437;-71
2021/01/01 12:22:25;;;;;;;42.63;19.40;;;3.90;97.30;;;;;;4898013;29;20512;-71
2021/01/01 12:24:52;;;;;;;43.33;18.70;;;3.90;97.30;;;;;;4897975;29;20418;-71
2021/01/01 12:27:26;;;;;;;41.13;18.87;;;3.80;97.30;;;;;;4898214;29;20436;-71
2021/01/01 12:29:52;;;;;;;49.93;21.20;;;3.90;97.30;;;;;;4897725;29;20428;-72
2021/01/01 12:32:21;;;;;;;46.23;19.70;;;3.90;97.30;;;;;;4898899;29;20473;-71
2021/01/01 12:34:47;;;;;;;40.73;18.70;;;3.90;97.30;;;;;;4898762;29;20429;-72
2021/01/01 12:37:14;;;;;;;44.20;20.70;;;3.90;97.30;;;;;;4897596;29;20423;-72
2021/01/01 12:39:40;;;;;;;47.60;22.10;;;3.90;97.30;;;;;;4897206;29;20429;-71
2021/01/01 12:42:06;;;;;;;66.73;32.30;;;3.90;97.30;;;;;;4897066;29;20472;-71
2021/01/01 12:44:32;;;;;;;46.10;22.40;;;4.00;97.30;;;;;;4898654;29;20188;-71
2021/01/01 12:47:02;;;;;;;53.47;24.43;;;4.00;97.30;;;;;;4898300;29;20500;-71
2021/01/01 12:49:27;;;;;;;51.57;22.27;;;4.00;97.30;;;;;;4897381;29;20501;-71
2021/01/01 12:51:53;;;;;;;47.53;21.23;;;4.00;97.30;;;;;;4897145;29;21054;-71
2021/01/01 12:54:19;;;;;;;42.27;18.37;;;4.00;97.30;;;;;;4897169;29;20177;-71
2021/01/01 12:56:45;;;;;;;42.10;17.87;;;4.10;97.30;;;;;;4898497;29;20805;-71
2021/01/01 12:59:10;;;;;;;47.80;20.80;;;4.00;97.30;;;;;;4897180;29;20214;-71
2021/01/01 13:01:37;;;;;;;39.73;18.10;;;4.00;97.30;;;;;;4897979;29;20217;-71
2021/01/01 13:04:03;;;;;;;40.00;17.30;;;4.00;97.30;;;;;;4897381;29;20694;-71
2021/01/01 13:06:29;;;;;;;37.83;18.50;;;4.00;97.30;;;;;;4897357;29;20417;-71
2021/01/01 13:08:57;;;;;;;43.70;19.90;;;4.00;97.30;;;;;;4897033;29;20429;-71
2021/01/01 13:11:26;;;;;;;44.97;20.77;;;4.00;97.30;;;;;;4897970;29;20289;-71
2021/01/01 13:13:52;;;;;;;45.00;20.10;;;4.00;97.30;;;;;;4896174;29;20426;-71
2021/01/01 13:16:26;;;;;;;52.53;19.20;;;4.10;97.30;;;;;;4896546;29;20455;-73
2021/01/01 13:18:52;;;;;;;40.23;18.90;;;4.00;97.30;;;;;;4897794;29;20465;-72
2021/01/01 13:21:28;;;;;;;41.37;17.37;;;4.10;97.30;;;;;;4896985;29;20553;-71
2021/01/01 13:23:54;;;;;;;39.10;17.20;;;4.10;97.30;;;;;;4896973;29;20417;-70
2021/01/01 13:26:24;;;;;;;39.63;18.50;;;4.10;97.30;;;;;;4896989;29;20427;-71
2021/01/01 13:28:51;;;;;;;43.97;17.60;;;4.10;97.30;;;;;;4897212;29;20181;-71
2021/01/01 13:31:18;;;;;;;38.03;17.70;;;4.00;97.30;;;;;;4898098;29;20476;-71
2021/01/01 13:33:44;;;;;;;40.13;18.50;;;4.00;97.30;;;;;;4896886;29;20418;-72
2021/01/01 13:36:18;;;;;;;41.50;17.67;;;4.00;97.30;;;;;;4897054;29;20422;-72
2021/01/01 13:38:45;;;;;;;44.40;19.60;;;4.00;97.30;;;;;;4896917;29;20413;-73
2021/01/01 13:41:13;;;;;;;37.07;17.87;;;4.10;97.30;;;;;;4896862;29;20516;-73
2021/01/01 13:43:43;;;;;;;41.00;17.33;;;4.00;97.30;;;;;;4896971;29;20429;-72
2021/01/01 13:46:18;;;;;;;39.53;20.03;;;4.00;97.30;;;;;;4897133;29;20448;-72
2021/01/01 13:48:43;;;;;;;35.83;16.50;;;3.90;97.30;;;;;;4900710;29;20420;-72
2021/01/01 13:51:09;;;;;;;34.93;16.30;;;3.90;97.30;;;;;;4900787;29;20473;-73
2021/01/01 13:53:35;;;;;;;43.17;19.00;;;3.90;97.30;;;;;;4900882;29;20177;-72
2021/01/01 13:56:00;;;;;;;41.83;18.90;;;3.90;97.30;;;;;;4900649;29;20200;-72
2021/01/01 13:58:26;;;;;;;37.40;17.83;;;3.90;97.30;;;;;;4900639;29;20181;-73
2021/01/01 14:00:52;;;;;;;46.30;20.97;;;3.90;97.30;;;;;;4900377;29;20212;-73
2021/01/01 14:03:18;;;;;;;37.60;17.80;;;3.90;97.30;;;;;;4900655;29;20473;-73
2021/01/01 14:05:48;;;;;;;38.90;17.27;;;4.00;97.30;;;;;;4901569;29;20177;-72
2021/01/01 14:08:18;;;;;;;36.90;17.80;;;4.00;97.30;;;;;;4900756;29;20987;-73
2021/01/01 14:10:55;;;;;;;36.07;17.40;;;4.00;97.30;;;;;;4901985;29;20545;-72
2021/01/01 14:13:20;;;;;;;38.13;16.80;;;4.00;97.30;;;;;;4901944;29;20429;-74
2021/01/01 14:15:46;;;;;;;34.20;16.57;;;4.00;97.30;;;;;;4901830;29;20473;-72
2021/01/01 14:18:12;;;;;;;36.53;17.27;;;4.00;97.30;;;;;;4900748;29;20188;-73
2021/01/01 14:20:38;;;;;;;38.77;18.10;;;4.00;97.30;;;;;;4900599;29;20201;-73
2021/01/01 14:23:03;;;;;;;40.67;17.70;;;4.00;97.30;;;;;;4900299;29;20220;-73
2021/01/01 14:25:29;;;;;;;38.13;17.07;;;4.00;97.30;;;;;;4902249;29;20595;-73
2021/01/01 14:27:55;;;;;;;34.90;16.13;;;4.10;97.30;;;;;;4901526;29;20581;-73
2021/01/01 14:30:23;;;;;;;33.87;15.37;;;4.20;97.30;;;;;;4899974;29;20189;-73
2021/01/01 14:32:49;;;;;;;30.53;14.47;;;4.10;97.30;;;;;;4900523;29;20414;-72
2021/01/01 14:35:15;;;;;;;37.90;17.37;;;4.20;97.30;;;;;;4900425;29;20422;-73
2021/01/01 14:37:42;;;;;;;35.00;14.97;;;4.30;97.30;;;;;;4902006;29;20340;-73
2021/01/01 14:40:10;;;;;;;33.17;15.50;;;4.10;97.30;;;;;;4900524;29;20418;-73
2021/01/01 14:42:36;;;;;;;36.23;16.13;;;4.10;97.30;;;;;;4899974;29;20533;-73
2021/01/01 14:45:04;;;;;;;34.93;15.97;;;4.00;97.30;;;;;;4901134;29;20402;-73
2021/01/01 14:47:31;;;;;;;33.97;15.40;;;4.00;97.30;;;;;;4900942;29;20461;-73
2021/01/01 14:49:57;;;;;;;31.33;15.37;;;4.00;97.30;;;;;;4899570;29;20461;-73
2021/01/01 14:52:23;;;;;;;30.07;15.03;;;4.10;97.30;;;;;;4899805;29;20897;-73
2021/01/01 14:54:48;;;;;;;31.73;13.80;;;4.20;97.30;;;;;;4899870;29;20458;-73
2021/01/01 14:57:14;;;;;;;29.50;13.23;;;4.40;97.30;;;;;;4899663;29;20188;-73
2021/01/01 14:59:41;;;;;;;28.13;13.70;;;4.40;97.30;;;;;;4898871;29;20220;-73
2021/01/01 15:02:07;;;;;;;30.83;13.70;;;4.40;97.30;;;;;;4899416;29;20213;-73
2021/01/01 15:04:33;;;;;;;30.53;15.37;;;4.40;97.30;;;;;;4900742;29;20505;-72
2021/01/01 15:06:58;;;;;;;30.80;14.47;;;4.30;97.30;;;;;;4899382;29;20217;-73
2021/01/01 15:09:24;;;;;;;37.03;15.60;;;4.20;97.30;;;;;;4899403;29;20233;-73
2021/01/01 15:11:51;;;;;;;30.07;14.73;;;4.20;97.30;;;;;;4899228;29;20272;-72
2021/01/01 15:14:17;;;;;;;32.83;14.20;;;4.20;97.30;;;;;;4899177;29;20434;-72
2021/01/01 15:16:45;;;;;;;31.53;14.70;;;4.20;97.30;;;;;;4899548;29;20428;-72
2021/01/01 15:19:11;;;;;;;34.73;15.07;;;4.10;97.30;;;;;;4900301;29;20501;-72
2021/01/01 15:21:37;;;;;;;34.53;15.00;;;4.10;97.30;;;;;;4899088;29;20544;-73
2021/01/01 15:24:04;;;;;;;35.13;16.43;;;4.00;97.30;;;;;;4899116;29;20284;-72
2021/01/01 15:26:31;;;;;;;30.20;14.20;;;4.00;97.30;;;;;;4898712;29;20430;-72
2021/01/01 15:29:00;;;;;;;26.00;12.90;;;4.00;97.30;;;;;;4900360;29;20504;-72
2021/01/01 15:31:26;;;;;;;31.53;17.17;;;3.90;97.30;;;;;;4895968;29;20473;-73
2021/01/01 15:33:52;;;;;;;37.93;18.40;;;3.90;97.30;;;;;;4899985;29;20417;-73
2021/01/01 15:36:19;;;;;;;32.20;14.80;;;4.00;97.30;;;;;;4899406;29;20418;-73
2021/01/01 15:38:46;;;;;;;30.33;15.43;;;4.00;97.30;;;;;;4900635;29;20469;-73
2021/01/01 15:41:15;;;;;;;31.70;15.60;;;4.10;97.30;;;;;;4899602;29;20441;-73
2021/01/01 15:43:42;;;;;;;36.90;15.90;;;4.10;97.30;;;;;;4899127;29;20428;-72
2021/01/01 15:46:09;;;;;;;36.47;15.93;;;4.10;97.30;;;;;;4880017;29;20458;-73
2021/01/01 15:48:34;;;;;;;35.83;17.27;;;4.10;97.30;;;;;;4880005;29;20509;-72
2021/01/01 15:51:00;;;;;;;31.63;14.23;;;4.10;97.30;;;;;;4880905;29;20557;-73
2021/01/01 15:53:26;;;;;;;33.23;13.83;;;4.10;97.30;;;;;;4881171;29;20170;-72
2021/01/01 15:55:52;;;;;;;35.03;14.80;;;4.10;97.30;;;;;;4880669;29;20471;-73
2021/01/01 15:58:17;;;;;;;37.37;16.87;;;4.10;97.30;;;;;;4897715;29;20189;-73
2021/01/01 16:00:43;;;;;;;29.43;13.50;;;4.10;97.30;;;;;;4898073;29;20248;-73
2021/01/01 16:03:08;;;;;;;41.90;17.40;;;4.10;97.30;;;;;;4899761;29;20165;-73
2021/01/01 16:05:34;;;;;;;37.80;17.30;;;4.10;97.30;;;;;;4898140;29;20181;-73
2021/01/01 16:08:00;;;;;;;41.20;16.90;;;4.10;97.30;;;;;;4898327;29;20188;-73
2021/01/01 16:10:25;;;;;;;39.10;16.47;;;4.10;97.30;;;;;;4897027;29;20181;-72
2021/01/01 16:12:51;;;;;;;34.70;15.83;;;4.10;97.30;;;;;;4881042;29;20537;-73
2021/01/01 16:15:17;;;;;;;39.20;17.90;;;4.10;97.30;;;;;;4880892;29;20162;-72
2021/01/01 16:17:43;;;;;;;38.10;16.30;;;4.10;97.30;;;;;;4880924;29;20185;-73
2021/01/01 16:20:12;;;;;;;43.77;17.80;;;4.10;97.30;;;;;;4898020;29;20690;-73
2021/01/01 16:22:38;;;;;;;38.90;16.10;;;4.10;97.30;;;;;;4898188;29;20500;-73
2021/01/01 16:25:05;;;;;;;44.87;17.87;;;4.10;97.30;;;;;;4897935;29;20425;-73
2021/01/01 16:27:31;;;;;;;42.03;17.37;;;4.20;97.30;;;;;;4898857;29;20425;-73
2021/01/01 16:29:57;;;;;;;43.80;18.30;;;4.10;97.30;;;;;;4899140;29;20417;-73
2021/01/01 16:32:23;;;;;;;48.30;21.30;;;4.20;97.30;;;;;;4883977;29;20225;-73
2021/01/01 16:34:48;;;;;;;45.53;20.23;;;4.20;97.30;;;;;;4879986;29;20182;-73
2021/01/01 16:37:14;;;;;;;47.83;21.10;;;4.20;97.30;;;;;;4892845;29;20437;-72
2021/01/01 16:39:40;;;;;;;73.47;31.90;;;4.10;97.30;;;;;;4893652;29;20185;-73
2021/01/01 16:42:10;;;;;;;179.77;95.43;;;4.10;97.30;;;;;;4914312;29;20196;-72
2021/01/01 16:44:39;;;;;;;57.57;26.10;;;4.10;97.30;;;;;;4908926;29;20240;-72
2021/01/01 16:47:05;;;;;;;43.60;18.67;;;4.00;97.30;;;;;;4909127;29;20412;-72
2021/01/01 16:49:31;;;;;;;47.80;19.90;;;4.00;97.30;;;;;;4901035;29;20762;-73
2021/01/01 16:51:56;;;;;;;73.43;27.73;;;4.00;97.30;;;;;;4897425;29;20217;-72
2021/01/01 16:54:23;;;;;;;44.80;18.93;;;4.00;97.30;;;;;;4898755;29;20181;-73
2021/01/01 16:56:51;;;;;;;59.50;23.27;;;4.00;97.30;;;;;;4897324;29;20643;-73
2021/01/01 16:59:19;;;;;;;54.20;20.03;;;4.00;97.30;;;;;;4897459;29;20445;-72
2021/01/01 17:01:52;;;;;;;51.00;22.93;;;3.90;97.30;;;;;;4897179;29;20465;-72
2021/01/01 17:04:21;;;;;;;59.13;21.93;;;3.90;97.30;;;;;;4897479;29;20560;-72
2021/01/01 17:06:52;;;;;;;42.63;19.40;;;4.00;97.30;;;;;;4897312;29;20481;-73
2021/01/01 17:09:18;;;;;;;45.30;20.07;;;4.00;97.30;;;;;;4897338;29;20421;-73
2021/01/01 17:11:45;;;;;;;46.07;19.67;;;4.00;97.30;;;;;;4897012;29;20477;-72
2021/01/01 17:14:11;;;;;;;54.17;22.27;;;4.00;97.30;;;;;;4898496;29;20437;-73
2021/01/01 17:16:38;;;;;;;41.40;18.30;;;4.00;97.30;;;;;;4898445;29;20421;-72
2021/01/01 17:19:04;;;;;;;51.60;20.07;;;4.00;97.30;;;;;;4897083;29;20919;-72
2021/01/01 17:21:30;;;;;;;44.80;18.87;;;4.00;97.30;;;;;;4896180;29;20460;-72
2021/01/01 17:23:56;;;;;;;55.10;19.63;;;3.90;97.30;;;;;;4897041;29;20192;-72
2021/01/01 17:26:29;;;;;;;42.47;20.10;;;3.90;97.30;;;;;;4892342;29;20194;-72
2021/01/01 17:28:57;;;;;;;58.63;23.70;;;3.80;97.30;;;;;;4885700;29;20430;-73
2021/01/01 17:31:25;;;;;;;61.50;23.20;;;3.80;97.30;;;;;;4898365;29;20560;-72
2021/01/01 17:33:53;;;;;;;52.83;21.63;;;3.70;97.30;;;;;;4897430;29;20572;-73
2021/01/01 17:36:19;;;;;;;56.03;24.07;;;3.70;97.30;;;;;;4897286;29;20432;-72
2021/01/01 17:38:46;;;;;;;59.20;23.50;;;3.70;97.30;;;;;;4897252;29;20463;-74
2021/01/01 17:41:19;;;;;;;58.40;23.90;;;3.70;97.30;;;;;;4896984;29;20720;-73
2021/01/01 17:43:52;;;;;;;56.90;22.80;;;3.70;97.30;;;;;;4898631;29;20410;-74
2021/01/01 17:46:19;;;;;;;59.40;23.37;;;3.70;97.30;;;;;;4892278;29;20428;-71
2021/01/01 17:48:46;;;;;;;50.50;23.20;;;3.70;97.30;;;;;;4896556;29;20414;-73
2021/01/01 17:51:16;;;;;;;63.60;23.93;;;3.70;97.30;;;;;;4896794;29;20576;-73
2021/01/01 17:53:43;;;;;;;58.37;22.70;;;3.70;97.30;;;;;;4892768;29;20468;-72
2021/01/01 17:56:09;;;;;;;59.97;24.60;;;3.70;97.30;;;;;;4897160;29;20429;-72
2021/01/01 17:58:35;;;;;;;57.80;23.30;;;3.70;97.30;;;;;;4896518;29;20453;-73
2021/01/01 18:01:03;;;;;;;52.63;22.90;;;3.70;97.30;;;;;;4896361;29;20460;-73
2021/01/01 18:03:29;;;;;;;59.17;25.60;;;3.70;97.30;;;;;;4896960;29;20242;-72
2021/01/01 18:05:56;;;;;;;55.77;23.60;;;3.70;97.30;;;;;;4896506;29;20524;-72
2021/01/01 18:08:22;;;;;;;56.47;25.30;;;3.60;97.30;;;;;;4898040;29;20425;-72
2021/01/01 18:10:48;;;;;;;60.37;23.10;;;3.60;97.30;;;;;;4895560;29;20505;-72
2021/01/01 18:13:14;;;;;;;58.00;24.70;;;3.60;97.30;;;;;;4881248;29;20769;-73
2021/01/01 18:15:47;;;;;;;64.73;25.47;;;3.50;97.30;;;;;;4894503;29;20533;-73
2021/01/01 18:18:14;;;;;;;55.60;24.27;;;3.50;97.30;;;;;;4896516;29;20662;-72
2021/01/01 18:20:40;;;;;;;50.40;23.60;;;3.50;97.30;;;;;;4898436;29;20444;-72
2021/01/01 18:23:46;;;;;;;61.23;25.13;;;3.50;97.30;;;;;;4896805;29;20796;-73
2021/01/01 18:26:12;;;;;;;54.13;23.27;;;3.50;97.30;;;;;;4885370;29;20445;-72
2021/01/01 18:28:42;;;;;;;57.10;24.27;;;3.50;97.30;;;;;;4877961;29;20426;-71
2021/01/01 18:31:15;;;;;;;76.63;32.73;;;3.50;97.30;;;;;;4879491;29;20220;-73
2021/01/01 18:33:44;;;;;;;105.70;43.27;;;3.60;97.30;;;;;;4878868;29;20533;-72
2021/01/01 18:36:19;;;;;;;85.00;34.47;;;3.70;97.30;;;;;;4881644;29;20422;-72
2021/01/01 18:39:05;;;;;;;62.80;28.10;;;3.70;97.30;;;;;;4897935;29;20950;-73
2021/01/01 18:41:39;;;;;;;53.70;23.50;;;3.70;97.30;;;;;;4900541;29;20445;-73
2021/01/01 18:44:10;;;;;;;53.23;23.10;;;3.70;97.30;;;;;;4900288;29;20457;-71
2021/01/01 18:46:39;;;;;;;70.17;26.43;;;3.80;97.30;;;;;;4901774;29;20409;-72
2021/01/01 18:49:08;;;;;;;68.70;29.67;;;3.80;97.30;;;;;;4899821;29;20784;-72
2021/01/01 18:51:39;;;;;;;60.17;25.23;;;3.80;97.30;;;;;;4899785;29;20568;-72
2021/01/01 18:54:08;;;;;;;68.70;27.70;;;3.70;97.30;;;;;;4888070;29;20426;-73
2021/01/01 18:56:37;;;;;;;54.90;24.27;;;3.70;97.30;;;;;;4881452;29;20493;-72
2021/01/01 18:59:08;;;;;;;59.63;23.90;;;3.70;97.30;;;;;;4898447;29;20425;-73
2021/01/01 19:01:49;;;;;;;55.93;24.53;;;3.70;97.30;;;;;;4899907;29;20502;-73
2021/01/01 19:05:00;;;;;;;60.50;24.90;;;3.70;97.30;;;;;;4900729;29;20855;-72
2021/01/01 19:07:34;;;;;;;67.70;26.90;;;3.70;97.30;;;;;;4895362;29;20434;-72
2021/01/01 19:10:02;;;;;;;77.33;31.43;;;3.70;97.30;;;;;;4881365;29;20962;-72
2021/01/01 19:12:28;;;;;;;56.70;23.43;;;3.80;97.30;;;;;;4882225;29;20518;-71
2021/01/01 19:14:58;;;;;;;56.70;25.20;;;3.80;97.30;;;;;;4882489;29;20848;-72
2021/01/01 19:17:32;;;;;;;61.90;26.37;;;3.80;97.30;;;;;;4882446;29;20182;-72
2021/01/01 19:20:00;;;;;;;63.97;27.20;;;3.80;97.30;;;;;;4881207;29;20521;-71
2021/01/01 19:22:34;;;;;;;58.47;25.17;;;3.80;97.30;;;;;;4882080;29;20435;-71
2021/01/01 19:25:06;;;;;;;49.57;20.63;;;3.70;97.30;;;;;;4880833;29;20936;-71
2021/01/01 19:27:46;;;;;;;47.10;20.83;;;3.60;97.30;;;;;;4880560;29;20826;-73
2021/01/01 19:30:15;;;;;;;47.23;22.97;;;3.50;97.30;;;;;;4888978;29;20418;-71
2021/01/01 19:32:59;;;;;;;48.10;20.60;;;3.50;97.30;;;;;;4900372;29;20890;-72
2021/01/01 19:35:43;;;;;;;53.47;21.20;;;3.50;97.30;;;;;;4882223;29;20523;-73
2021/01/01 19:38:26;;;;;;;47.90;21.23;;;3.50;97.30;;;;;;4895380;29;20418;-72
2021/01/01 19:41:29;;;;;;;42.77;20.03;;;3.50;97.30;;;;;;4899810;29;20453;-71
2021/01/01 19:44:13;;;;;;;45.90;19.43;;;3.50;97.30;;;;;;4898816;29;20790;-73
2021/01/01 19:46:53;;;;;;;48.47;19.33;;;3.50;97.30;;;;;;4900012;29;20891;-72
2021/01/01 19:50:04;;;;;;;43.30;19.47;;;3.40;97.30;;;;;;4899641;29;20903;-72
2021/01/01 19:52:54;;;;;;;50.23;17.83;;;3.40;97.30;;;;;;4889928;29;20857;-72